sensor_id;sensor_type;location;lat;lon;timestamp;P1;durP1;ratioP1;P2;durP2;ratioP2
26574;SDS011;67165;50.256;10.978;2023-04-24T00:01:54;4.43;;;2.30;;
26574;SDS011;67165;50.256;10.978;2023-04-24T00:04:21;2.75;;;1.80;;
26574;SDS011;67165;50.256;10.978;2023-04-24T00:06:50;2.70;;;2.08;;
26574;SDS011;67165;50.256;10.978;2023-04-24T00:09:19;3.58;;;2.13;;
26574;SDS011;67165;50.256;10.978;2023-04-24T00:11:45;3.67;;;2.30;;
26574;SDS011;67165;50.256;10.978;2023-04-24T00:14:13;3.28;;;2.10;;
26574;SDS011;67165;50.256;10.978;2023-04-24T00:16:39;5.60;;;2.20;;
26574;SDS011;67165;50.256;10.978;2023-04-24T00:19:04;3.22;;;2.20;;
26574;SDS011;67165;50.256;10.978;2023-04-24T00:21:31;3.10;;;2.10;;
26574;SDS011;67165;50.256;10.978;2023-04-24T00:24:00;4.97;;;2.42;;
26574;SDS011;67165;50.256;10.978;2023-04-24T00:26:28;2.50;;;2.28;;
26574;SDS011;67165;50.256;10.978;2023-04-24T00:28:56;3.05;;;2.55;;
26574;SDS011;67165;50.256;10.978;2023-04-24T00:31:24;2.83;;;2.40;;
26574;SDS011;67165;50.256;10.978;2023-04-24T00:34:00;4.25;;;2.53;;
26574;SDS011;67165;50.256;10.978;2023-04-24T00:36:27;6.32;;;2.72;;
26574;SDS011;67165;50.256;10.978;2023-04-24T00:38:55;5.35;;;2.53;;
26574;SDS011;67165;50.256;10.978;2023-04-24T00:41:23;3.38;;;2.95;;
26574;SDS011;67165;50.256;10.978;2023-04-24T00:43:52;5.50;;;3.13;;
26574;SDS011;67165;50.256;10.978;2023-04-24T00:46:18;8.70;;;2.92;;
26574;SDS011;67165;50.256;10.978;2023-04-24T00:48:46;3.30;;;2.72;;
26574;SDS011;67165;50.256;10.978;2023-04-24T00:51:12;6.07;;;2.90;;
26574;SDS011;67165;50.256;10.978;2023-04-24T00:53:40;4.57;;;3.00;;
26574;SDS011;67165;50.256;10.978;2023-04-24T00:56:09;8.35;;;3.38;;
26574;SDS011;67165;50.256;10.978;2023-04-24T00:58:35;5.60;;;2.97;;
26574;SDS011;67165;50.256;10.978;2023-04-24T01:01:02;4.80;;;3.00;;
26574;SDS011;67165;50.256;10.978;2023-04-24T01:03:32;5.60;;;3.15;;
26574;SDS011;67165;50.256;10.978;2023-04-24T01:06:01;4.03;;;2.85;;
26574;SDS011;67165;50.256;10.978;2023-04-24T01:08:28;4.25;;;2.45;;
26574;SDS011;67165;50.256;10.978;2023-04-24T01:11:00;5.70;;;2.80;;
26574;SDS011;67165;50.256;10.978;2023-04-24T01:13:29;3.08;;;2.58;;
26574;SDS011;67165;50.256;10.978;2023-04-24T01:16:00;4.28;;;2.88;;
26574;SDS011;67165;50.256;10.978;2023-04-24T01:18:26;4.15;;;2.42;;
26574;SDS011;67165;50.256;10.978;2023-04-24T01:20:53;4.93;;;2.90;;
26574;SDS011;67165;50.256;10.978;2023-04-24T01:23:25;3.17;;;2.75;;
26574;SDS011;67165;50.256;10.978;2023-04-24T01:25:51;4.25;;;3.00;;
26574;SDS011;67165;50.256;10.978;2023-04-24T01:28:17;7.13;;;2.88;;
26574;SDS011;67165;50.256;10.978;2023-04-24T01:30:44;5.20;;;2.53;;
26574;SDS011;67165;50.256;10.978;2023-04-24T01:33:10;3.85;;;2.60;;
26574;SDS011;67165;50.256;10.978;2023-04-24T01:35:38;4.18;;;2.47;;
26574;SDS011;67165;50.256;10.978;2023-04-24T01:38:07;4.22;;;2.60;;
26574;SDS011;67165;50.256;10.978;2023-04-24T01:40:35;5.32;;;2.35;;
26574;SDS011;67165;50.256;10.978;2023-04-24T01:43:01;3.60;;;2.47;;
26574;SDS011;67165;50.256;10.978;2023-04-24T01:45:27;4.88;;;2.28;;
26574;SDS011;67165;50.256;10.978;2023-04-24T01:47:55;6.22;;;2.40;;
26574;SDS011;67165;50.256;10.978;2023-04-24T01:50:25;4.78;;;2.38;;
26574;SDS011;67165;50.256;10.978;2023-04-24T01:52:51;2.90;;;2.17;;
26574;SDS011;67165;50.256;10.978;2023-04-24T01:55:17;6.20;;;2.28;;
26574;SDS011;67165;50.256;10.978;2023-04-24T01:57:48;3.10;;;2.22;;
26574;SDS011;67165;50.256;10.978;2023-04-24T02:00:15;3.13;;;1.88;;
26574;SDS011;67165;50.256;10.978;2023-04-24T02:02:40;2.60;;;2.00;;
26574;SDS011;67165;50.256;10.978;2023-04-24T02:05:09;4.57;;;1.98;;
26574;SDS011;67165;50.256;10.978;2023-04-24T02:07:38;4.90;;;2.10;;
26574;SDS011;67165;50.256;10.978;2023-04-24T02:10:04;2.85;;;1.90;;
26574;SDS011;67165;50.256;10.978;2023-04-24T02:12:33;3.05;;;1.83;;
26574;SDS011;67165;50.256;10.978;2023-04-24T02:15:02;4.38;;;2.03;;
26574;SDS011;67165;50.256;10.978;2023-04-24T02:17:28;3.83;;;1.85;;
26574;SDS011;67165;50.256;10.978;2023-04-24T02:19:54;3.97;;;1.92;;
26574;SDS011;67165;50.256;10.978;2023-04-24T02:22:27;3.63;;;1.88;;
26574;SDS011;67165;50.256;10.978;2023-04-24T02:24:55;2.15;;;1.60;;
26574;SDS011;67165;50.256;10.978;2023-04-24T02:27:24;2.42;;;1.70;;
26574;SDS011;67165;50.256;10.978;2023-04-24T02:29:55;1.70;;;1.50;;
26574;SDS011;67165;50.256;10.978;2023-04-24T02:32:21;4.82;;;1.95;;
26574;SDS011;67165;50.256;10.978;2023-04-24T02:34:50;2.58;;;1.65;;
26574;SDS011;67165;50.256;10.978;2023-04-24T02:37:18;2.42;;;1.45;;
26574;SDS011;67165;50.256;10.978;2023-04-24T02:39:44;2.35;;;1.52;;
26574;SDS011;67165;50.256;10.978;2023-04-24T02:42:14;2.90;;;1.58;;
26574;SDS011;67165;50.256;10.978;2023-04-24T02:44:45;4.22;;;1.80;;
26574;SDS011;67165;50.256;10.978;2023-04-24T02:47:11;3.20;;;1.63;;
26574;SDS011;67165;50.256;10.978;2023-04-24T02:49:40;2.65;;;1.55;;
26574;SDS011;67165;50.256;10.978;2023-04-24T02:52:08;1.95;;;1.52;;
26574;SDS011;67165;50.256;10.978;2023-04-24T02:54:38;2.95;;;1.67;;
26574;SDS011;67165;50.256;10.978;2023-04-24T02:57:04;3.88;;;1.63;;
26574;SDS011;67165;50.256;10.978;2023-04-24T02:59:32;6.85;;;1.60;;
26574;SDS011;67165;50.256;10.978;2023-04-24T03:02:00;4.32;;;1.48;;
26574;SDS011;67165;50.256;10.978;2023-04-24T03:04:29;5.20;;;1.48;;
26574;SDS011;67165;50.256;10.978;2023-04-24T03:06:55;3.65;;;1.50;;
26574;SDS011;67165;50.256;10.978;2023-04-24T03:09:23;2.90;;;1.50;;
26574;SDS011;67165;50.256;10.978;2023-04-24T03:11:53;2.38;;;1.48;;
26574;SDS011;67165;50.256;10.978;2023-04-24T03:14:23;3.92;;;1.50;;
26574;SDS011;67165;50.256;10.978;2023-04-24T03:16:49;2.33;;;1.30;;
26574;SDS011;67165;50.256;10.978;2023-04-24T03:19:15;2.33;;;1.50;;
26574;SDS011;67165;50.256;10.978;2023-04-24T03:21:41;1.63;;;1.27;;
26574;SDS011;67165;50.256;10.978;2023-04-24T03:24:09;2.13;;;1.40;;
26574;SDS011;67165;50.256;10.978;2023-04-24T03:26:35;2.72;;;1.50;;
26574;SDS011;67165;50.256;10.978;2023-04-24T03:29:03;1.77;;;1.48;;
26574;SDS011;67165;50.256;10.978;2023-04-24T03:31:29;2.22;;;1.50;;
26574;SDS011;67165;50.256;10.978;2023-04-24T03:33:55;3.85;;;1.80;;
26574;SDS011;67165;50.256;10.978;2023-04-24T03:36:23;4.13;;;1.80;;
26574;SDS011;67165;50.256;10.978;2023-04-24T03:38:58;4.25;;;1.88;;
26574;SDS011;67165;50.256;10.978;2023-04-24T03:41:24;3.60;;;1.80;;
26574;SDS011;67165;50.256;10.978;2023-04-24T03:43:50;5.45;;;2.55;;
26574;SDS011;67165;50.256;10.978;2023-04-24T03:46:15;3.95;;;2.45;;
26574;SDS011;67165;50.256;10.978;2023-04-24T03:48:41;3.40;;;2.30;;
26574;SDS011;67165;50.256;10.978;2023-04-24T03:51:09;5.90;;;2.20;;
26574;SDS011;67165;50.256;10.978;2023-04-24T03:53:39;3.75;;;2.00;;
26574;SDS011;67165;50.256;10.978;2023-04-24T03:56:08;2.80;;;2.00;;
26574;SDS011;67165;50.256;10.978;2023-04-24T03:58:34;2.00;;;1.70;;
26574;SDS011;67165;50.256;10.978;2023-04-24T04:01:00;4.10;;;1.80;;
26574;SDS011;67165;50.256;10.978;2023-04-24T04:03:25;4.32;;;1.70;;
26574;SDS011;67165;50.256;10.978;2023-04-24T04:05:51;2.75;;;1.77;;
26574;SDS011;67165;50.256;10.978;2023-04-24T04:08:21;4.60;;;1.77;;
26574;SDS011;67165;50.256;10.978;2023-04-24T04:10:49;1.95;;;1.63;;
26574;SDS011;67165;50.256;10.978;2023-04-24T04:13:17;3.13;;;1.80;;
26574;SDS011;67165;50.256;10.978;2023-04-24T04:15:46;3.03;;;1.80;;
26574;SDS011;67165;50.256;10.978;2023-04-24T04:18:15;3.38;;;1.88;;
26574;SDS011;67165;50.256;10.978;2023-04-24T04:20:40;3.20;;;1.92;;
26574;SDS011;67165;50.256;10.978;2023-04-24T04:23:06;4.30;;;1.75;;
26574;SDS011;67165;50.256;10.978;2023-04-24T04:25:32;5.22;;;2.17;;
26574;SDS011;67165;50.256;10.978;2023-04-24T04:27:58;2.95;;;1.75;;
26574;SDS011;67165;50.256;10.978;2023-04-24T04:30:24;3.92;;;1.83;;
26574;SDS011;67165;50.256;10.978;2023-04-24T04:32:57;2.88;;;1.90;;
26574;SDS011;67165;50.256;10.978;2023-04-24T04:35:29;3.28;;;2.00;;
26574;SDS011;67165;50.256;10.978;2023-04-24T04:37:58;3.08;;;2.00;;
26574;SDS011;67165;50.256;10.978;2023-04-24T04:40:23;2.40;;;1.88;;
26574;SDS011;67165;50.256;10.978;2023-04-24T04:42:51;2.90;;;1.67;;
26574;SDS011;67165;50.256;10.978;2023-04-24T04:45:20;5.20;;;1.90;;
26574;SDS011;67165;50.256;10.978;2023-04-24T04:47:49;3.10;;;2.33;;
26574;SDS011;67165;50.256;10.978;2023-04-24T04:50:15;5.05;;;2.00;;
26574;SDS011;67165;50.256;10.978;2023-04-24T04:52:43;5.55;;;2.50;;
26574;SDS011;67165;50.256;10.978;2023-04-24T04:55:12;6.18;;;2.90;;
26574;SDS011;67165;50.256;10.978;2023-04-24T04:57:38;5.55;;;2.50;;
26574;SDS011;67165;50.256;10.978;2023-04-24T05:00:07;4.25;;;2.03;;
26574;SDS011;67165;50.256;10.978;2023-04-24T05:02:35;4.13;;;1.90;;
26574;SDS011;67165;50.256;10.978;2023-04-24T05:05:01;2.55;;;1.70;;
26574;SDS011;67165;50.256;10.978;2023-04-24T05:07:30;3.78;;;1.98;;
26574;SDS011;67165;50.256;10.978;2023-04-24T05:09:56;3.38;;;1.80;;
26574;SDS011;67165;50.256;10.978;2023-04-24T05:12:21;5.93;;;1.90;;
26574;SDS011;67165;50.256;10.978;2023-04-24T05:14:50;1.70;;;1.60;;
26574;SDS011;67165;50.256;10.978;2023-04-24T05:17:18;3.63;;;1.92;;
26574;SDS011;67165;50.256;10.978;2023-04-24T05:19:44;3.20;;;1.70;;
26574;SDS011;67165;50.256;10.978;2023-04-24T05:22:12;3.97;;;1.88;;
26574;SDS011;67165;50.256;10.978;2023-04-24T05:24:38;3.30;;;1.73;;
26574;SDS011;67165;50.256;10.978;2023-04-24T05:27:06;3.10;;;1.60;;
26574;SDS011;67165;50.256;10.978;2023-04-24T05:29:37;5.03;;;1.80;;
26574;SDS011;67165;50.256;10.978;2023-04-24T05:32:09;3.15;;;1.65;;
26574;SDS011;67165;50.256;10.978;2023-04-24T05:34:37;2.75;;;1.92;;
26574;SDS011;67165;50.256;10.978;2023-04-24T05:37:05;5.63;;;2.40;;
26574;SDS011;67165;50.256;10.978;2023-04-24T05:39:35;3.80;;;2.20;;
26574;SDS011;67165;50.256;10.978;2023-04-24T05:42:04;5.13;;;2.35;;
26574;SDS011;67165;50.256;10.978;2023-04-24T05:44:35;4.40;;;1.65;;
26574;SDS011;67165;50.256;10.978;2023-04-24T05:47:00;3.15;;;1.65;;
26574;SDS011;67165;50.256;10.978;2023-04-24T05:49:27;3.22;;;1.70;;
26574;SDS011;67165;50.256;10.978;2023-04-24T05:51:52;4.45;;;1.50;;
26574;SDS011;67165;50.256;10.978;2023-04-24T05:54:18;3.33;;;1.50;;
26574;SDS011;67165;50.256;10.978;2023-04-24T05:56:44;2.17;;;1.63;;
26574;SDS011;67165;50.256;10.978;2023-04-24T05:59:12;3.72;;;1.60;;
26574;SDS011;67165;50.256;10.978;2023-04-24T06:01:41;2.45;;;1.52;;
26574;SDS011;67165;50.256;10.978;2023-04-24T06:04:09;3.45;;;1.73;;
26574;SDS011;67165;50.256;10.978;2023-04-24T06:06:38;5.05;;;1.85;;
26574;SDS011;67165;50.256;10.978;2023-04-24T06:09:09;3.00;;;1.85;;
26574;SDS011;67165;50.256;10.978;2023-04-24T06:11:39;2.55;;;1.52;;
26574;SDS011;67165;50.256;10.978;2023-04-24T06:14:08;3.90;;;1.67;;
26574;SDS011;67165;50.256;10.978;2023-04-24T06:16:36;5.05;;;1.42;;
26574;SDS011;67165;50.256;10.978;2023-04-24T06:19:07;3.70;;;1.52;;
26574;SDS011;67165;50.256;10.978;2023-04-24T06:21:32;1.92;;;1.23;;
26574;SDS011;67165;50.256;10.978;2023-04-24T06:24:01;5.63;;;1.70;;
26574;SDS011;67165;50.256;10.978;2023-04-24T06:26:31;4.63;;;1.70;;
26574;SDS011;67165;50.256;10.978;2023-04-24T06:28:57;5.88;;;1.40;;
26574;SDS011;67165;50.256;10.978;2023-04-24T06:31:26;3.28;;;1.50;;
26574;SDS011;67165;50.256;10.978;2023-04-24T06:33:55;2.60;;;1.30;;
26574;SDS011;67165;50.256;10.978;2023-04-24T06:36:26;4.78;;;1.67;;
26574;SDS011;67165;50.256;10.978;2023-04-24T06:38:55;4.47;;;1.70;;
26574;SDS011;67165;50.256;10.978;2023-04-24T06:41:23;5.15;;;1.70;;
26574;SDS011;67165;50.256;10.978;2023-04-24T06:43:48;5.53;;;1.50;;
26574;SDS011;67165;50.256;10.978;2023-04-24T06:46:22;2.92;;;1.55;;
26574;SDS011;67165;50.256;10.978;2023-04-24T06:48:50;3.67;;;1.27;;
26574;SDS011;67165;50.256;10.978;2023-04-24T06:51:19;9.88;;;1.73;;
26574;SDS011;67165;50.256;10.978;2023-04-24T06:53:47;1.65;;;1.17;;
26574;SDS011;67165;50.256;10.978;2023-04-24T06:56:19;2.92;;;1.33;;
26574;SDS011;67165;50.256;10.978;2023-04-24T06:58:45;2.40;;;1.30;;
26574;SDS011;67165;50.256;10.978;2023-04-24T07:01:17;3.00;;;1.40;;
26574;SDS011;67165;50.256;10.978;2023-04-24T07:04:02;5.05;;;1.40;;
26574;SDS011;67165;50.256;10.978;2023-04-24T07:06:39;2.05;;;1.40;;
26574;SDS011;67165;50.256;10.978;2023-04-24T07:09:08;4.82;;;1.60;;
26574;SDS011;67165;50.256;10.978;2023-04-24T07:12:00;3.08;;;1.40;;
26574;SDS011;67165;50.256;10.978;2023-04-24T07:14:41;4.15;;;1.58;;
26574;SDS011;67165;50.256;10.978;2023-04-24T07:17:37;2.63;;;1.40;;
26574;SDS011;67165;50.256;10.978;2023-04-24T07:20:11;1.48;;;1.38;;
26574;SDS011;67165;50.256;10.978;2023-04-24T07:22:40;2.60;;;1.73;;
26574;SDS011;67165;50.256;10.978;2023-04-24T07:25:14;4.00;;;1.60;;
26574;SDS011;67165;50.256;10.978;2023-04-24T07:27:44;4.65;;;1.98;;
26574;SDS011;67165;50.256;10.978;2023-04-24T07:30:14;2.45;;;1.42;;
26574;SDS011;67165;50.256;10.978;2023-04-24T07:32:39;2.92;;;1.50;;
26574;SDS011;67165;50.256;10.978;2023-04-24T07:35:21;2.55;;;1.50;;
26574;SDS011;67165;50.256;10.978;2023-04-24T07:37:53;3.45;;;1.60;;
26574;SDS011;67165;50.256;10.978;2023-04-24T07:40:19;2.65;;;1.40;;
26574;SDS011;67165;50.256;10.978;2023-04-24T07:42:45;2.00;;;1.50;;
26574;SDS011;67165;50.256;10.978;2023-04-24T07:45:13;2.28;;;1.70;;
26574;SDS011;67165;50.256;10.978;2023-04-24T07:47:40;1.83;;;1.42;;
26574;SDS011;67165;50.256;10.978;2023-04-24T07:50:09;3.88;;;1.40;;
26574;SDS011;67165;50.256;10.978;2023-04-24T07:52:35;2.28;;;1.45;;
26574;SDS011;67165;50.256;10.978;2023-04-24T07:55:01;2.13;;;1.52;;
26574;SDS011;67165;50.256;10.978;2023-04-24T07:57:27;3.50;;;1.48;;
26574;SDS011;67165;50.256;10.978;2023-04-24T07:59:53;4.05;;;1.40;;
26574;SDS011;67165;50.256;10.978;2023-04-24T08:02:20;1.50;;;1.20;;
26574;SDS011;67165;50.256;10.978;2023-04-24T08:04:51;1.80;;;1.40;;
26574;SDS011;67165;50.256;10.978;2023-04-24T08:07:17;2.45;;;1.50;;
26574;SDS011;67165;50.256;10.978;2023-04-24T08:09:43;5.15;;;1.50;;
26574;SDS011;67165;50.256;10.978;2023-04-24T08:12:12;1.00;;;1.00;;
26574;SDS011;67165;50.256;10.978;2023-04-24T08:14:40;1.55;;;1.30;;
26574;SDS011;67165;50.256;10.978;2023-04-24T08:17:06;2.33;;;1.52;;
26574;SDS011;67165;50.256;10.978;2023-04-24T08:19:32;2.42;;;1.42;;
26574;SDS011;67165;50.256;10.978;2023-04-24T08:21:57;2.83;;;1.60;;
26574;SDS011;67165;50.256;10.978;2023-04-24T08:24:23;1.60;;;1.50;;
26574;SDS011;67165;50.256;10.978;2023-04-24T08:26:49;2.13;;;1.45;;
26574;SDS011;67165;50.256;10.978;2023-04-24T08:29:16;5.13;;;1.70;;
26574;SDS011;67165;50.256;10.978;2023-04-24T08:31:42;2.45;;;1.70;;
26574;SDS011;67165;50.256;10.978;2023-04-24T08:34:09;2.53;;;1.67;;
26574;SDS011;67165;50.256;10.978;2023-04-24T08:36:35;2.97;;;1.63;;
26574;SDS011;67165;50.256;10.978;2023-04-24T08:39:01;3.97;;;1.60;;
26574;SDS011;67165;50.256;10.978;2023-04-24T08:41:27;3.40;;;1.42;;
26574;SDS011;67165;50.256;10.978;2023-04-24T08:43:52;2.00;;;1.40;;
26574;SDS011;67165;50.256;10.978;2023-04-24T08:46:20;3.38;;;1.60;;
26574;SDS011;67165;50.256;10.978;2023-04-24T08:48:46;2.60;;;1.70;;
26574;SDS011;67165;50.256;10.978;2023-04-24T08:51:15;2.97;;;1.60;;
26574;SDS011;67165;50.256;10.978;2023-04-24T08:53:42;3.28;;;1.88;;
26574;SDS011;67165;50.256;10.978;2023-04-24T08:56:08;3.83;;;2.03;;
26574;SDS011;67165;50.256;10.978;2023-04-24T08:58:36;1.65;;;1.55;;
26574;SDS011;67165;50.256;10.978;2023-04-24T09:01:05;3.55;;;1.67;;
26574;SDS011;67165;50.256;10.978;2023-04-24T09:03:32;2.22;;;1.50;;
26574;SDS011;67165;50.256;10.978;2023-04-24T09:06:01;2.97;;;1.70;;
26574;SDS011;67165;50.256;10.978;2023-04-24T09:08:33;2.42;;;1.83;;
26574;SDS011;67165;50.256;10.978;2023-04-24T09:11:08;3.88;;;1.65;;
26574;SDS011;67165;50.256;10.978;2023-04-24T09:13:37;3.28;;;1.70;;
26574;SDS011;67165;50.256;10.978;2023-04-24T09:16:36;2.85;;;2.00;;
26574;SDS011;67165;50.256;10.978;2023-04-24T09:19:02;3.63;;;1.67;;
26574;SDS011;67165;50.256;10.978;2023-04-24T09:21:36;3.10;;;2.08;;
26574;SDS011;67165;50.256;10.978;2023-04-24T09:24:04;2.55;;;1.98;;
26574;SDS011;67165;50.256;10.978;2023-04-24T09:26:34;2.92;;;1.83;;
26574;SDS011;67165;50.256;10.978;2023-04-24T09:29:01;3.33;;;1.92;;
26574;SDS011;67165;50.256;10.978;2023-04-24T09:31:33;3.08;;;1.80;;
26574;SDS011;67165;50.256;10.978;2023-04-24T09:34:03;1.60;;;1.50;;
26574;SDS011;67165;50.256;10.978;2023-04-24T09:36:40;2.00;;;1.60;;
26574;SDS011;67165;50.256;10.978;2023-04-24T09:41:56;2.55;;;2.03;;
26574;SDS011;67165;50.256;10.978;2023-04-24T09:44:34;4.28;;;1.90;;
26574;SDS011;67165;50.256;10.978;2023-04-24T09:47:19;4.18;;;2.20;;
26574;SDS011;67165;50.256;10.978;2023-04-24T09:49:47;3.00;;;1.90;;
26574;SDS011;67165;50.256;10.978;2023-04-24T09:52:15;3.03;;;2.35;;
26574;SDS011;67165;50.256;10.978;2023-04-24T09:54:46;3.92;;;2.10;;
26574;SDS011;67165;50.256;10.978;2023-04-24T09:57:19;2.65;;;2.05;;
26574;SDS011;67165;50.256;10.978;2023-04-24T09:59:47;4.00;;;2.70;;
26574;SDS011;67165;50.256;10.978;2023-04-24T10:02:19;3.70;;;2.40;;
26574;SDS011;67165;50.256;10.978;2023-04-24T10:04:55;2.58;;;2.38;;
26574;SDS011;67165;50.256;10.978;2023-04-24T10:07:27;3.88;;;2.72;;
26574;SDS011;67165;50.256;10.978;2023-04-24T10:09:53;5.28;;;3.20;;
26574;SDS011;67165;50.256;10.978;2023-04-24T10:12:22;2.95;;;2.35;;
26574;SDS011;67165;50.256;10.978;2023-04-24T10:14:49;4.15;;;2.35;;
26574;SDS011;67165;50.256;10.978;2023-04-24T10:17:19;2.85;;;2.25;;
26574;SDS011;67165;50.256;10.978;2023-04-24T10:19:46;2.60;;;2.10;;
26574;SDS011;67165;50.256;10.978;2023-04-24T10:22:12;2.40;;;2.13;;
26574;SDS011;67165;50.256;10.978;2023-04-24T10:24:41;3.10;;;2.22;;
26574;SDS011;67165;50.256;10.978;2023-04-24T10:27:12;5.03;;;2.50;;
26574;SDS011;67165;50.256;10.978;2023-04-24T10:29:41;3.03;;;2.20;;
26574;SDS011;67165;50.256;10.978;2023-04-24T10:32:08;2.90;;;2.00;;
26574;SDS011;67165;50.256;10.978;2023-04-24T10:34:36;2.83;;;2.03;;
26574;SDS011;67165;50.256;10.978;2023-04-24T10:37:10;3.57;;;2.10;;
26574;SDS011;67165;50.256;10.978;2023-04-24T10:39:36;2.97;;;1.95;;
26574;SDS011;67165;50.256;10.978;2023-04-24T10:42:15;3.50;;;2.08;;
26574;SDS011;67165;50.256;10.978;2023-04-24T10:44:41;2.30;;;1.80;;
26574;SDS011;67165;50.256;10.978;2023-04-24T10:47:13;4.80;;;2.05;;
26574;SDS011;67165;50.256;10.978;2023-04-24T10:49:49;3.05;;;1.98;;
26574;SDS011;67165;50.256;10.978;2023-04-24T10:52:19;2.70;;;2.08;;
26574;SDS011;67165;50.256;10.978;2023-04-24T10:54:46;4.13;;;2.25;;
26574;SDS011;67165;50.256;10.978;2023-04-24T10:59:45;2.13;;;1.92;;
26574;SDS011;67165;50.256;10.978;2023-04-24T11:02:36;3.13;;;2.03;;
26574;SDS011;67165;50.256;10.978;2023-04-24T11:05:03;3.05;;;1.92;;
26574;SDS011;67165;50.256;10.978;2023-04-24T11:07:29;4.40;;;2.00;;
26574;SDS011;67165;50.256;10.978;2023-04-24T11:09:58;2.35;;;1.60;;
26574;SDS011;67165;50.256;10.978;2023-04-24T11:12:26;4.22;;;1.92;;
26574;SDS011;67165;50.256;10.978;2023-04-24T11:17:34;3.13;;;2.10;;
26574;SDS011;67165;50.256;10.978;2023-04-24T11:22:42;3.28;;;1.63;;
26574;SDS011;67165;50.256;10.978;2023-04-24T11:25:08;3.22;;;2.08;;
26574;SDS011;67165;50.256;10.978;2023-04-24T11:27:43;3.17;;;2.13;;
26574;SDS011;67165;50.256;10.978;2023-04-24T11:30:16;2.63;;;1.88;;
26574;SDS011;67165;50.256;10.978;2023-04-24T11:32:52;1.95;;;1.63;;
26574;SDS011;67165;50.256;10.978;2023-04-24T11:35:19;2.88;;;1.45;;
26574;SDS011;67165;50.256;10.978;2023-04-24T11:37:55;5.57;;;1.90;;
26574;SDS011;67165;50.256;10.978;2023-04-24T11:40:21;4.18;;;2.10;;
26574;SDS011;67165;50.256;10.978;2023-04-24T11:42:48;2.92;;;1.75;;
26574;SDS011;67165;50.256;10.978;2023-04-24T11:47:46;3.63;;;1.80;;
26574;SDS011;67165;50.256;10.978;2023-04-24T11:50:13;2.67;;;1.63;;
26574;SDS011;67165;50.256;10.978;2023-04-24T11:52:44;3.58;;;1.65;;
26574;SDS011;67165;50.256;10.978;2023-04-24T11:57:43;1.70;;;1.60;;
26574;SDS011;67165;50.256;10.978;2023-04-24T12:02:43;2.63;;;1.70;;
26574;SDS011;67165;50.256;10.978;2023-04-24T12:05:09;1.70;;;1.60;;
26574;SDS011;67165;50.256;10.978;2023-04-24T12:07:48;3.90;;;1.70;;
26574;SDS011;67165;50.256;10.978;2023-04-24T12:10:14;2.30;;;1.73;;
26574;SDS011;67165;50.256;10.978;2023-04-24T12:12:44;2.08;;;1.80;;
26574;SDS011;67165;50.256;10.978;2023-04-24T12:15:11;2.10;;;1.70;;
26574;SDS011;67165;50.256;10.978;2023-04-24T12:17:40;2.88;;;1.85;;
26574;SDS011;67165;50.256;10.978;2023-04-24T12:20:07;1.70;;;1.60;;
26574;SDS011;67165;50.256;10.978;2023-04-24T12:25:14;2.45;;;1.88;;
26574;SDS011;67165;50.256;10.978;2023-04-24T12:27:41;4.38;;;1.90;;
26574;SDS011;67165;50.256;10.978;2023-04-24T12:30:12;3.30;;;1.67;;
26574;SDS011;67165;50.256;10.978;2023-04-24T12:32:49;2.15;;;1.95;;
26574;SDS011;67165;50.256;10.978;2023-04-24T12:35:20;5.60;;;2.03;;
26574;SDS011;67165;50.256;10.978;2023-04-24T12:37:47;1.92;;;1.70;;
26574;SDS011;67165;50.256;10.978;2023-04-24T12:40:13;2.70;;;1.90;;
26574;SDS011;67165;50.256;10.978;2023-04-24T12:42:45;2.42;;;1.80;;
26574;SDS011;67165;50.256;10.978;2023-04-24T12:45:15;2.10;;;1.73;;
26574;SDS011;67165;50.256;10.978;2023-04-24T12:47:52;3.75;;;1.73;;
26574;SDS011;67165;50.256;10.978;2023-04-24T12:50:18;2.03;;;1.83;;
26574;SDS011;67165;50.256;10.978;2023-04-24T12:52:47;2.20;;;1.70;;
26574;SDS011;67165;50.256;10.978;2023-04-24T12:55:12;2.05;;;1.70;;
26574;SDS011;67165;50.256;10.978;2023-04-24T12:57:48;2.17;;;1.85;;
26574;SDS011;67165;50.256;10.978;2023-04-24T13:00:17;2.28;;;1.75;;
26574;SDS011;67165;50.256;10.978;2023-04-24T13:02:43;3.97;;;1.80;;
26574;SDS011;67165;50.256;10.978;2023-04-24T13:05:12;2.75;;;1.70;;
26574;SDS011;67165;50.256;10.978;2023-04-24T13:07:43;2.60;;;1.63;;
26574;SDS011;67165;50.256;10.978;2023-04-24T13:10:09;3.55;;;1.98;;
26574;SDS011;67165;50.256;10.978;2023-04-24T13:12:40;2.30;;;1.90;;
26574;SDS011;67165;50.256;10.978;2023-04-24T13:15:12;2.45;;;1.70;;
26574;SDS011;67165;50.256;10.978;2023-04-24T13:17:38;3.28;;;1.88;;
26574;SDS011;67165;50.256;10.978;2023-04-24T13:20:11;4.13;;;1.73;;
26574;SDS011;67165;50.256;10.978;2023-04-24T13:22:39;4.15;;;1.90;;
26574;SDS011;67165;50.256;10.978;2023-04-24T13:25:10;3.42;;;2.05;;
26574;SDS011;67165;50.256;10.978;2023-04-24T13:27:38;12.32;;;6.95;;
26574;SDS011;67165;50.256;10.978;2023-04-24T13:30:04;7.32;;;4.78;;
26574;SDS011;67165;50.256;10.978;2023-04-24T13:32:33;4.70;;;3.22;;
26574;SDS011;67165;50.256;10.978;2023-04-24T13:35:00;2.67;;;2.40;;
26574;SDS011;67165;50.256;10.978;2023-04-24T13:37:28;4.13;;;3.50;;
26574;SDS011;67165;50.256;10.978;2023-04-24T13:39:56;4.78;;;2.95;;
26574;SDS011;67165;50.256;10.978;2023-04-24T13:42:22;5.63;;;4.57;;
26574;SDS011;67165;50.256;10.978;2023-04-24T13:44:48;4.50;;;4.00;;
26574;SDS011;67165;50.256;10.978;2023-04-24T13:47:16;9.80;;;6.95;;
26574;SDS011;67165;50.256;10.978;2023-04-24T13:49:48;4.20;;;3.80;;
26574;SDS011;67165;50.256;10.978;2023-04-24T13:52:13;4.65;;;3.80;;
26574;SDS011;67165;50.256;10.978;2023-04-24T13:54:39;4.70;;;3.33;;
26574;SDS011;67165;50.256;10.978;2023-04-24T13:57:05;3.63;;;3.33;;
26574;SDS011;67165;50.256;10.978;2023-04-24T13:59:31;4.70;;;4.00;;
26574;SDS011;67165;50.256;10.978;2023-04-24T14:01:57;3.13;;;2.80;;
26574;SDS011;67165;50.256;10.978;2023-04-24T14:04:22;5.85;;;2.00;;
26574;SDS011;67165;50.256;10.978;2023-04-24T14:06:50;2.95;;;1.60;;
26574;SDS011;67165;50.256;10.978;2023-04-24T14:09:16;2.97;;;2.00;;
26574;SDS011;67165;50.256;10.978;2023-04-24T14:11:42;2.20;;;2.00;;
26574;SDS011;67165;50.256;10.978;2023-04-24T14:14:08;2.28;;;1.90;;
26574;SDS011;67165;50.256;10.978;2023-04-24T14:16:33;3.30;;;2.28;;
26574;SDS011;67165;50.256;10.978;2023-04-24T14:19:00;2.95;;;1.98;;
26574;SDS011;67165;50.256;10.978;2023-04-24T14:21:25;3.78;;;2.17;;
26574;SDS011;67165;50.256;10.978;2023-04-24T14:23:54;4.80;;;1.70;;
26574;SDS011;67165;50.256;10.978;2023-04-24T14:26:20;2.53;;;1.67;;
26574;SDS011;67165;50.256;10.978;2023-04-24T14:28:48;5.13;;;2.03;;
26574;SDS011;67165;50.256;10.978;2023-04-24T14:31:17;2.85;;;1.90;;
26574;SDS011;67165;50.256;10.978;2023-04-24T14:33:45;2.40;;;1.73;;
26574;SDS011;67165;50.256;10.978;2023-04-24T14:36:13;1.45;;;1.35;;
26574;SDS011;67165;50.256;10.978;2023-04-24T14:38:39;1.80;;;1.70;;
26574;SDS011;67165;50.256;10.978;2023-04-24T14:41:08;2.33;;;1.40;;
26574;SDS011;67165;50.256;10.978;2023-04-24T14:43:35;2.42;;;1.30;;
26574;SDS011;67165;50.256;10.978;2023-04-24T14:46:01;3.75;;;1.48;;
26574;SDS011;67165;50.256;10.978;2023-04-24T14:51:11;1.67;;;1.30;;
26574;SDS011;67165;50.256;10.978;2023-04-24T14:53:42;1.33;;;1.20;;
26574;SDS011;67165;50.256;10.978;2023-04-24T14:56:18;1.92;;;1.20;;
26574;SDS011;67165;50.256;10.978;2023-04-24T14:58:54;1.08;;;1.00;;
26574;SDS011;67165;50.256;10.978;2023-04-24T15:01:33;1.10;;;1.00;;
26574;SDS011;67165;50.256;10.978;2023-04-24T15:04:01;1.08;;;0.85;;
26574;SDS011;67165;50.256;10.978;2023-04-24T15:06:27;1.10;;;1.00;;